Time;durP1;ratioP1;P1;durP2;ratioP2;P2;SDS_P1;SDS_P2;PMS_P1;PMS_P2;Temp;Humidity;BMP_temperature;BMP_pressure;BME280_temperature;BME280_humidity;BME280_pressure;Samples;Min_cycle;Max_cycle;Signal;HPM_P1;HPM_P2
2023/12/26 00:00:56;;;;;;;1.70;0.50;;;;;;;9.35;100.00;99827.34;5013601;28;20431;-67
2023/12/26 00:03:23;;;;;;;1.80;0.67;;;;;;;9.37;100.00;99828.94;5014554;28;20519;-66
2023/12/26 00:05:50;;;;;;;1.60;0.50;;;;;;;9.35;100.00;99813.03;5017737;28;20543;-66
2023/12/26 00:08:16;;;;;;;1.67;0.50;;;;;;;9.35;100.00;99811.13;5012493;28;20479;-66
2023/12/26 00:10:44;;;;;;;1.50;0.30;;;;;;;9.35;100.00;99811.13;5012687;28;20436;-65
2023/12/26 00:13:11;;;;;;;1.53;0.37;;;;;;;9.32;100.00;99808.25;5016718;28;20440;-65
2023/12/26 00:15:38;;;;;;;2.27;0.67;;;;;;;9.37;100.00;99815.41;5010200;28;20452;-65
2023/12/26 00:18:05;;;;;;;1.77;0.43;;;;;;;9.40;100.00;99814.81;5011336;28;20433;-65
2023/12/26 00:20:32;;;;;;;1.83;0.40;;;;;;;9.37;100.00;99796.50;5012714;28;20929;-65
2023/12/26 00:22:59;;;;;;;1.70;0.60;;;;;;;9.36;100.00;99784.88;5014765;28;20448;-65
2023/12/26 00:25:25;;;;;;;1.83;0.50;;;;;;;9.35;100.00;99773.28;5016979;28;20534;-66
2023/12/26 00:27:53;;;;;;;1.50;0.30;;;;;;;9.39;100.00;99772.66;5013493;28;20904;-65
2023/12/26 00:30:20;;;;;;;1.47;0.40;;;;;;;9.38;100.00;99776.47;5013816;28;20494;-66
2023/12/26 00:32:47;;;;;;;1.57;0.40;;;;;;;9.37;100.00;99780.28;5013484;28;20440;-66
2023/12/26 00:35:14;;;;;;;2.43;0.60;;;;;;;9.36;100.00;99763.28;5011015;28;20464;-66
2023/12/26 00:37:41;;;;;;;2.30;0.57;;;;;;;9.34;100.00;99760.88;5011646;28;20494;-66
2023/12/26 00:40:09;;;;;;;1.53;0.40;;;;;;;9.34;100.00;99752.78;5014534;28;20448;-66
2023/12/26 00:42:36;;;;;;;1.60;0.47;;;;;;;9.32;100.00;99757.69;5012803;28;20428;-66
2023/12/26 00:45:05;;;;;;;2.17;0.63;;;;;;;9.31;100.00;99742.59;5013357;28;20460;-66
2023/12/26 00:47:32;;;;;;;1.90;0.47;;;;;;;9.37;100.00;99747.84;5002258;28;20527;-66
2023/12/26 00:49:59;;;;;;;1.70;0.50;;;;;;;9.35;100.00;99756.28;5011958;28;20952;-66
2023/12/26 00:52:26;;;;;;;1.60;0.40;;;;;;;9.38;100.00;99744.03;5027664;28;20486;-66
2023/12/26 00:54:53;;;;;;;1.80;0.50;;;;;;;9.36;100.00;99736.25;5016636;28;20507;-65
2023/12/26 00:57:20;;;;;;;1.50;0.40;;;;;;;9.35;100.00;99740.84;5016557;28;20923;-65
2023/12/26 00:59:47;;;;;;;1.50;0.40;;;;;;;9.34;100.00;99727.63;5016462;28;20447;-65
2023/12/26 01:02:15;;;;;;;2.10;0.60;;;;;;;9.41;100.00;99729.91;5016560;28;20444;-65
2023/12/26 01:04:42;;;;;;;1.60;0.40;;;;;;;9.41;100.00;99732.59;5016666;28;20452;-65
2023/12/26 01:07:09;;;;;;;1.50;0.30;;;;;;;9.40;100.00;99722.91;5016470;28;20487;-65
2023/12/26 01:09:35;;;;;;;1.93;0.40;;;;;;;9.39;100.00;99721.31;5016101;28;20920;-66
2023/12/26 01:12:02;;;;;;;1.90;0.60;;;;;;;9.42;100.00;99715.25;5017097;28;20490;-65
2023/12/26 01:14:29;;;;;;;2.20;0.60;;;;;;;9.39;100.00;99710.50;5031572;28;20459;-65
2023/12/26 01:16:56;;;;;;;1.60;0.50;;;;;;;9.46;100.00;99710.81;5020445;28;20443;-65
2023/12/26 01:19:24;;;;;;;1.50;0.40;;;;;;;9.44;100.00;99696.84;5018405;28;20443;-65
2023/12/26 01:21:51;;;;;;;1.87;0.60;;;;;;;9.41;100.00;99698.25;5018234;28;20821;-65
2023/12/26 01:24:17;;;;;;;3.03;0.77;;;;;;;9.43;100.00;99697.94;5015802;28;20456;-66
2023/12/26 01:26:44;;;;;;;1.60;0.40;;;;;;;9.43;100.00;99703.34;5013132;28;20436;-66
2023/12/26 01:29:11;;;;;;;1.90;0.53;;;;;;;9.48;100.00;99700.50;4997821;28;20578;-66
2023/12/26 01:31:38;;;;;;;1.97;0.40;;;;;;;9.50;100.00;99692.88;5018013;28;20505;-66
2023/12/26 01:34:05;;;;;;;2.37;0.70;;;;;;;9.50;100.00;99690.97;5016417;28;20468;-66
2023/12/26 01:36:33;;;;;;;2.27;0.70;;;;;;;9.48;100.00;99679.69;5012962;28;20433;-66
2023/12/26 01:39:00;;;;;;;1.50;0.30;;;;;;;9.47;100.00;99685.38;5011315;28;20468;-66
2023/12/26 01:41:27;;;;;;;1.50;0.40;;;;;;;9.47;100.00;99669.97;5004745;28;20445;-66
2023/12/26 01:43:54;;;;;;;1.60;0.50;;;;;;;9.52;100.00;99666.34;5019015;28;20454;-66
2023/12/26 01:46:21;;;;;;;1.73;0.60;;;;;;;9.54;100.00;99666.81;5019456;28;20436;-66
2023/12/26 01:48:52;;;;;;;1.50;0.40;;;;;;;9.58;100.00;99654.25;5007314;28;20856;-66
2023/12/26 01:51:21;;;;;;;1.50;0.40;;;;;;;9.67;100.00;99660.44;5013419;28;20424;-66
2023/12/26 01:53:49;;;;;;;1.60;0.40;;;;;;;9.68;100.00;99651.22;5014589;28;20863;-66
2023/12/26 01:56:16;;;;;;;1.50;0.40;;;;;;;9.66;100.00;99648.03;5019141;28;20493;-66
2023/12/26 01:58:45;;;;;;;1.50;0.33;;;;;;;9.67;100.00;99638.03;5013490;28;20424;-66
2023/12/26 02:01:13;;;;;;;1.50;0.30;;;;;;;9.67;100.00;99649.63;5006001;28;20491;-66
2023/12/26 02:03:40;;;;;;;1.60;0.50;;;;;;;9.80;100.00;99647.88;5014002;28;20440;-66
2023/12/26 02:06:08;;;;;;;2.37;0.50;;;;;;;9.82;100.00;99632.13;5013900;28;20494;-66
2023/12/26 02:08:36;;;;;;;1.50;0.30;;;;;;;9.89;100.00;99627.03;5013217;28;20582;-66
2023/12/26 02:11:04;;;;;;;1.50;0.40;;;;;;;9.92;100.00;99625.63;5033590;22;20491;-68
2023/12/26 02:13:31;;;;;;;1.50;0.30;;;;;;;9.90;100.00;99617.00;5066766;28;21991;-67
2023/12/26 02:16:02;;;;;;;1.50;0.30;;;;;;;9.95;100.00;99608.72;5071337;28;20446;-70
2023/12/26 02:18:29;;;;;;;1.50;0.30;;;;;;;9.94;100.00;99607.13;5068837;28;20422;-71
2023/12/26 02:20:56;;;;;;;1.50;0.30;;;;;;;9.95;100.00;99606.03;5068777;28;20441;-70
2023/12/26 02:23:26;;;;;;;1.50;0.40;;;;;;;9.91;100.00;99610.47;5062396;28;20425;-70
2023/12/26 02:25:56;;;;;;;1.50;0.30;;;;;;;10.02;100.00;99600.94;5073073;28;20441;-69
2023/12/26 02:28:23;;;;;;;1.50;0.40;;;;;;;10.05;100.00;99597.59;5065278;28;20470;-69
2023/12/26 02:30:52;;;;;;;1.50;0.30;;;;;;;10.08;100.00;99605.03;5063485;28;20548;-69
2023/12/26 02:33:19;;;;;;;1.40;0.30;;;;;;;10.10;100.00;99616.34;5061977;28;20437;-69
2023/12/26 02:35:46;;;;;;;1.50;0.40;;;;;;;10.10;100.00;99602.81;5069676;28;20445;-70
2023/12/26 02:38:13;;;;;;;1.50;0.40;;;;;;;10.07;100.00;99606.16;5069612;28;20838;-70
2023/12/26 02:40:40;;;;;;;1.50;0.40;;;;;;;10.03;100.00;99597.09;5054770;28;20439;-70
2023/12/26 02:43:08;;;;;;;1.50;0.40;;;;;;;10.06;100.00;99599.16;5058620;28;20479;-71
2023/12/26 02:45:34;;;;;;;1.43;0.30;;;;;;;10.05;100.00;99600.28;5064913;28;20454;-72
2023/12/26 02:48:01;;;;;;;1.50;0.30;;;;;;;10.03;100.00;99591.69;5064230;28;20474;-71
2023/12/26 02:50:28;;;;;;;1.50;0.40;;;;;;;10.09;100.00;99596.63;5066926;28;20442;-71
2023/12/26 02:52:55;;;;;;;1.50;0.30;;;;;;;10.02;100.00;99585.47;5070942;28;20468;-72
2023/12/26 02:55:21;;;;;;;1.50;0.30;;;;;;;10.08;100.00;99588.81;5059303;28;20457;-71
2023/12/26 02:57:48;;;;;;;1.50;0.30;;;;;;;10.12;100.00;99584.34;5063738;28;20484;-70
2023/12/26 03:00:17;;;;;;;1.50;0.30;;;;;;;10.09;100.00;99583.09;5057089;28;20918;-70
2023/12/26 03:02:44;;;;;;;1.70;0.50;;;;;;;10.08;100.00;99581.47;5069063;28;20445;-70
2023/12/26 03:05:11;;;;;;;1.50;0.30;;;;;;;10.06;100.00;99570.19;5065290;28;20870;-70
2023/12/26 03:07:37;;;;;;;1.50;0.30;;;;;;;10.04;100.00;99577.81;5064167;28;20492;-71
2023/12/26 03:10:08;;;;;;;1.50;0.30;;;;;;;10.11;100.00;99588.16;5069088;28;20518;-70
2023/12/26 03:12:35;;;;;;;1.50;0.30;;;;;;;10.05;100.00;99579.44;5061543;28;20937;-71
2023/12/26 03:15:02;;;;;;;1.50;0.40;;;;;;;10.01;100.00;99583.91;5066664;28;20795;-71
2023/12/26 03:17:31;;;;;;;1.50;0.30;;;;;;;9.91;100.00;99575.31;5061866;28;20433;-71
2023/12/26 03:19:57;;;;;;;1.50;0.30;;;;;;;9.91;100.00;99575.31;5058527;28;20450;-71
2023/12/26 03:22:24;;;;;;;1.50;0.30;;;;;;;9.89;100.00;99570.22;5060266;28;20668;-72
2023/12/26 03:24:51;;;;;;;1.43;0.30;;;;;;;9.90;100.00;99571.03;5072313;28;20457;-71
2023/12/26 03:27:18;;;;;;;1.47;0.30;;;;;;;9.91;100.00;99572.59;5064993;28;20434;-70
2023/12/26 03:29:45;;;;;;;1.50;0.30;;;;;;;9.82;100.00;99580.75;5070704;28;20507;-71
2023/12/26 03:32:13;;;;;;;1.50;0.30;;;;;;;9.84;100.00;99582.03;5072921;28;20491;-71
2023/12/26 03:34:41;;;;;;;1.50;0.30;;;;;;;9.85;100.00;99572.78;5064223;28;20450;-71
2023/12/26 03:37:08;;;;;;;1.47;0.30;;;;;;;9.83;100.00;99571.53;5055356;28;20442;-71
2023/12/26 03:39:35;;;;;;;1.50;0.40;;;;;;;9.81;100.00;99568.34;5057961;28;20426;-71
2023/12/26 03:42:01;;;;;;;1.47;0.37;;;;;;;9.83;100.00;99566.91;5057260;28;20437;-71
2023/12/26 03:44:28;;;;;;;1.43;0.30;;;;;;;9.85;100.00;99575.50;5061455;28;20455;-71
2023/12/26 03:46:55;;;;;;;1.50;0.40;;;;;;;9.86;100.00;99568.16;5058194;28;20839;-71
2023/12/26 03:49:22;;;;;;;1.50;0.30;;;;;;;9.89;100.00;99564.81;5061366;28;20501;-70
2023/12/26 03:51:50;;;;;;;1.50;0.30;;;;;;;9.83;100.00;99563.41;5068519;28;20945;-71
2023/12/26 03:54:18;;;;;;;1.40;0.30;;;;;;;9.86;100.00;99570.88;5058471;28;20449;-71
2023/12/26 03:56:45;;;;;;;1.50;0.40;;;;;;;9.83;100.00;99555.31;5061687;28;20446;-70
2023/12/26 03:59:13;;;;;;;1.70;0.50;;;;;;;9.80;100.00;99562.13;5056475;28;20429;-71
2023/12/26 04:01:39;;;;;;;1.50;0.40;;;;;;;9.78;100.00;99561.69;5066818;28;20484;-71
2023/12/26 04:04:06;;;;;;;1.50;0.30;;;;;;;9.82;100.00;99568.00;5071922;28;20453;-71
2023/12/26 04:06:33;;;;;;;1.97;0.50;;;;;;;9.78;100.00;99572.50;5058609;28;20496;-71
2023/12/26 04:09:01;;;;;;;1.47;0.30;;;;;;;9.83;100.00;99571.53;5053884;28;20537;-71
2023/12/26 04:11:30;;;;;;;1.50;0.30;;;;;;;9.78;100.00;99574.38;5066121;28;20449;-71
2023/12/26 04:13:56;;;;;;;1.50;0.30;;;;;;;9.80;100.00;99575.66;5066907;28;20996;-71
2023/12/26 04:16:23;;;;;;;1.40;0.30;;;;;;;9.78;100.00;99569.78;5066829;28;20433;-71
2023/12/26 04:18:50;;;;;;;1.50;0.30;;;;;;;9.80;100.00;99572.94;5070672;28;20426;-70
2023/12/26 04:21:17;;;;;;;1.47;0.30;;;;;;;9.77;100.00;99565.47;5059659;28;20504;-69
2023/12/26 04:23:43;;;;;;;1.50;0.30;;;;;;;9.75;100.00;99569.63;5063065;28;20438;-69
2023/12/26 04:26:12;;;;;;;1.50;0.30;;;;;;;9.75;100.00;99573.13;5066239;28;20436;-69
2023/12/26 04:28:38;;;;;;;1.60;0.40;;;;;;;9.72;100.00;99584.56;5069511;28;20485;-69
2023/12/26 04:31:05;;;;;;;1.50;0.30;;;;;;;9.76;100.00;99582.81;5075072;28;20956;-69
2023/12/26 04:33:32;;;;;;;1.50;0.30;;;;;;;9.78;100.00;99580.59;5065924;28;20438;-69
2023/12/26 04:35:59;;;;;;;1.50;0.30;;;;;;;9.78;100.00;99586.00;5073788;28;21147;-69
2023/12/26 04:38:25;;;;;;;1.50;0.40;;;;;;;9.81;100.00;99589.97;5073985;28;20819;-69
2023/12/26 04:40:52;;;;;;;1.47;0.30;;;;;;;9.82;100.00;99592.34;5076501;28;20433;-69
2023/12/26 04:43:20;;;;;;;1.50;0.30;;;;;;;9.78;100.00;99587.91;5066956;28;20503;-69
2023/12/26 04:45:47;;;;;;;1.50;0.40;;;;;;;9.80;100.00;99594.59;5065134;28;20450;-70
2023/12/26 04:48:14;;;;;;;1.50;0.30;;;;;;;9.78;100.00;99593.31;5065130;28;20495;-69
2023/12/26 04:50:41;;;;;;;1.50;0.40;;;;;;;9.76;100.00;99596.34;5064303;28;20489;-70
2023/12/26 04:53:10;;;;;;;1.50;0.40;;;;;;;9.72;100.00;99608.13;5066686;28;20483;-69
2023/12/26 04:55:36;;;;;;;1.50;0.40;;;;;;;9.73;100.00;99604.28;5064016;28;20511;-70
2023/12/26 04:58:04;;;;;;;1.47;0.30;;;;;;;9.74;100.00;99601.28;5071573;28;20484;-70
2023/12/26 05:00:32;;;;;;;1.47;0.30;;;;;;;9.77;100.00;99600.63;5068477;28;20428;-70
2023/12/26 05:02:58;;;;;;;1.47;0.30;;;;;;;9.73;100.00;99613.19;5071619;28;20432;-69
2023/12/26 05:05:25;;;;;;;1.50;0.30;;;;;;;9.79;100.00;99608.44;5058035;28;20512;-69
2023/12/26 05:07:52;;;;;;;1.47;0.30;;;;;;;9.71;100.00;99607.31;5060092;28;20433;-69
2023/12/26 05:10:19;;;;;;;1.50;0.40;;;;;;;9.74;100.00;99605.88;5063082;28;20481;-68
2023/12/26 05:12:45;;;;;;;1.50;0.40;;;;;;;9.72;100.00;99602.72;5070921;28;20533;-70
2023/12/26 05:15:12;;;;;;;1.47;0.30;;;;;;;9.72;100.00;99613.53;5073127;28;20461;-69
2023/12/26 05:17:40;;;;;;;1.50;0.30;;;;;;;9.71;100.00;99607.31;5072899;28;20438;-68
2023/12/26 05:20:08;;;;;;;1.50;0.30;;;;;;;9.70;100.00;99616.56;5073649;28;20437;-69
2023/12/26 05:22:35;;;;;;;1.50;0.30;;;;;;;9.70;100.00;99615.78;5066004;28;20447;-68
2023/12/26 05:25:01;;;;;;;1.53;0.43;;;;;;;9.73;100.00;99615.91;5068774;28;20453;-69
2023/12/26 05:27:28;;;;;;;1.50;0.40;;;;;;;9.76;100.00;99628.78;5062744;28;20437;-69
2023/12/26 05:29:55;;;;;;;1.50;0.30;;;;;;;9.76;100.00;99631.50;5075430;28;20478;-68
2023/12/26 05:32:22;;;;;;;1.50;0.40;;;;;;;9.73;100.00;99626.72;5073429;28;20445;-69
2023/12/26 05:34:55;;;;;;;1.60;0.50;;;;;;;9.73;100.00;99621.31;5057579;28;20470;-69
2023/12/26 05:37:22;;;;;;;1.50;0.40;;;;;;;9.70;100.00;99621.97;5071983;28;20425;-69
2023/12/26 05:39:50;;;;;;;1.50;0.40;;;;;;;9.76;100.00;99636.91;5058549;28;20431;-69
2023/12/26 05:42:17;;;;;;;1.50;0.40;;;;;;;9.76;100.00;99653.13;5066479;28;20532;-69
2023/12/26 05:44:44;;;;;;;1.60;0.50;;;;;;;9.73;100.00;99632.13;5066346;28;20964;-69
2023/12/26 05:47:11;;;;;;;1.50;0.40;;;;;;;9.71;100.00;99631.66;5071900;28;20933;-70
2023/12/26 05:49:38;;;;;;;1.50;0.40;;;;;;;9.69;100.00;99641.97;5061783;28;21011;-69
2023/12/26 05:52:07;;;;;;;1.70;0.57;;;;;;;9.66;100.00;99664.28;5061195;28;20497;-69
2023/12/26 05:54:33;;;;;;;1.70;0.47;;;;;;;9.65;100.00;99659.16;5072224;28;20461;-69
2023/12/26 05:57:00;;;;;;;1.50;0.30;;;;;;;9.68;100.00;99656.63;5071644;28;20429;-70
2023/12/26 05:59:27;;;;;;;1.60;0.53;;;;;;;9.66;100.00;99663.47;5069462;28;20434;-70
2023/12/26 06:01:54;;;;;;;1.43;0.30;;;;;;;9.67;100.00;99656.94;5074126;28;20441;-70
2023/12/26 06:04:21;;;;;;;1.47;0.30;;;;;;;9.75;100.00;99666.97;5065941;28;20545;-70
2023/12/26 06:06:47;;;;;;;1.50;0.30;;;;;;;9.68;100.00;99662.03;5055955;28;20496;-70
2023/12/26 06:09:16;;;;;;;1.60;0.40;;;;;;;9.63;100.00;99675.72;5069185;28;20481;-70
2023/12/26 06:11:43;;;;;;;1.50;0.30;;;;;;;9.62;100.00;99681.44;5070948;28;20441;-70
2023/12/26 06:14:10;;;;;;;1.80;0.53;;;;;;;9.59;100.00;99680.16;5068164;28;20466;-70
2023/12/26 06:16:37;;;;;;;1.50;0.30;;;;;;;9.59;100.00;99688.28;5068690;28;20482;-70
2023/12/26 06:19:04;;;;;;;1.80;0.50;;;;;;;9.59;100.00;99697.16;5060285;28;20430;-69
2023/12/26 06:21:31;;;;;;;1.50;0.40;;;;;;;9.62;100.00;99698.47;5064628;28;20848;-70
2023/12/26 06:23:58;;;;;;;1.70;0.50;;;;;;;9.65;100.00;99703.25;5075179;28;21012;-70
2023/12/26 06:26:26;;;;;;;1.60;0.40;;;;;;;9.68;100.00;99705.28;5059207;28;20447;-70
2023/12/26 06:28:52;;;;;;;1.50;0.30;;;;;;;9.66;100.00;99695.94;5065136;28;20478;-70
2023/12/26 06:31:19;;;;;;;1.50;0.40;;;;;;;9.66;100.00;99710.25;5062280;28;20457;-70
2023/12/26 06:33:46;;;;;;;1.47;0.40;;;;;;;9.69;100.00;99717.69;5072298;28;20491;-70
2023/12/26 06:36:13;;;;;;;1.47;0.30;;;;;;;9.69;100.00;99714.19;5067260;28;20437;-70
2023/12/26 06:38:39;;;;;;;1.50;0.30;;;;;;;9.62;100.00;99703.06;5074742;28;20919;-69
2023/12/26 06:41:06;;;;;;;1.47;0.30;;;;;;;9.59;100.00;99702.56;5076243;28;20483;-69
2023/12/26 06:43:34;;;;;;;1.60;0.40;;;;;;;9.61;100.00;99704.97;5071894;28;20438;-70
2023/12/26 06:46:04;;;;;;;1.40;0.30;;;;;;;9.63;100.00;99696.53;5072302;28;20930;-69
2023/12/26 06:48:31;;;;;;;1.50;0.40;;;;;;;9.64;100.00;99706.25;5065913;28;20438;-69
2023/12/26 06:50:58;;;;;;;1.50;0.40;;;;;;;9.57;100.00;99704.03;5070778;28;20503;-69
2023/12/26 06:53:25;;;;;;;1.80;0.40;;;;;;;9.56;100.00;99694.28;5071430;28;20514;-69
2023/12/26 06:55:51;;;;;;;1.50;0.40;;;;;;;9.54;100.00;99677.63;5067026;28;20495;-68
2023/12/26 06:58:18;;;;;;;1.90;0.43;;;;;;;9.50;100.00;99695.56;5065857;28;20427;-69
2023/12/26 07:00:46;;;;;;;1.50;0.30;;;;;;;9.48;100.00;99731.03;5061212;28;20975;-69
2023/12/26 07:03:13;;;;;;;1.50;0.40;;;;;;;9.49;100.00;99745.34;5054687;28;20442;-69
2023/12/26 07:05:40;;;;;;;1.50;0.40;;;;;;;9.44;100.00;99745.50;5059925;28;20457;-68
2023/12/26 07:08:07;;;;;;;1.50;0.30;;;;;;;9.41;100.00;99748.81;5072821;28;20788;-68
2023/12/26 07:10:34;;;;;;;1.50;0.30;;;;;;;9.35;100.00;99767.88;5068781;28;20474;-69
2023/12/26 07:13:01;;;;;;;1.50;0.30;;;;;;;9.32;100.00;99768.50;5071845;28;20910;-69
2023/12/26 07:15:28;;;;;;;1.50;0.30;;;;;;;9.32;100.00;99773.91;5065977;28;20446;-69
2023/12/26 07:17:56;;;;;;;1.50;0.30;;;;;;;9.28;100.00;99780.25;5067367;28;20459;-69
2023/12/26 07:20:23;;;;;;;1.50;0.30;;;;;;;9.29;100.00;99785.34;5071915;28;20600;-68
2023/12/26 07:22:50;;;;;;;1.50;0.40;;;;;;;9.28;100.00;99782.94;5070609;28;20433;-69
2023/12/26 07:25:16;;;;;;;1.50;0.30;;;;;;;9.26;100.00;99802.19;5073764;28;20462;-69
2023/12/26 07:27:43;;;;;;;1.60;0.43;;;;;;;9.27;100.00;99801.06;5071723;28;20443;-69
2023/12/26 07:30:11;;;;;;;1.57;0.40;;;;;;;9.27;100.00;99808.38;5068508;28;20989;-69
2023/12/26 07:32:37;;;;;;;1.50;0.40;;;;;;;9.29;100.00;99816.97;5065631;28;20442;-69
2023/12/26 07:35:06;;;;;;;1.50;0.40;;;;;;;9.27;100.00;99811.88;5073041;28;20969;-69
2023/12/26 07:37:33;;;;;;;1.93;0.63;;;;;;;9.21;100.00;99817.72;5071654;28;20434;-69
2023/12/26 07:39:59;;;;;;;2.20;0.93;;;;;;;9.24;100.00;99825.22;5060819;28;20438;-69
2023/12/26 07:42:26;;;;;;;1.60;0.50;;;;;;;9.20;100.00;99835.03;5057850;28;20438;-69
2023/12/26 07:44:53;;;;;;;1.90;0.40;;;;;;;9.22;100.00;99835.53;5067988;28;20453;-70
2023/12/26 07:47:20;;;;;;;1.50;0.30;;;;;;;9.23;100.00;99829.81;5058814;28;20505;-69
2023/12/26 07:49:47;;;;;;;1.50;0.40;;;;;;;9.30;100.00;99841.00;5068186;28;20473;-69
2023/12/26 07:52:15;;;;;;;1.50;0.30;;;;;;;9.27;100.00;99855.13;5088860;28;20812;-69
2023/12/26 07:54:42;;;;;;;1.50;0.40;;;;;;;9.26;100.00;99872.44;5067941;28;20520;-70
2023/12/26 07:57:09;;;;;;;1.50;0.30;;;;;;;9.35;100.00;99862.47;5064333;28;20442;-70
2023/12/26 07:59:36;;;;;;;1.50;0.30;;;;;;;9.37;100.00;99861.38;5058039;28;20784;-70
2023/12/26 08:02:02;;;;;;;1.50;0.40;;;;;;;9.39;100.00;99868.06;5066154;28;20446;-71
2023/12/26 08:04:29;;;;;;;1.50;0.30;;;;;;;9.41;100.00;99868.53;5061138;28;20454;-72
2023/12/26 08:06:56;;;;;;;1.73;0.50;;;;;;;9.46;100.00;99891.94;5062613;28;20446;-73
2023/12/26 08:09:24;;;;;;;1.50;0.50;;;;;;;9.54;100.00;99888.47;5070178;28;21011;-71
2023/12/26 08:11:51;;;;;;;1.50;0.30;;;;;;;9.55;100.00;99895.47;5073087;22;20659;-65
2023/12/26 08:14:18;;;;;;;1.50;0.30;;;;;;;9.53;100.00;99884.97;5055209;28;20508;-65
2023/12/26 08:16:45;;;;;;;1.50;0.40;;;;;;;9.57;100.00;99898.69;5053159;28;20538;-65
2023/12/26 08:19:12;;;;;;;1.50;0.30;;;;;;;9.56;100.00;99914.09;5048134;28;20459;-64
2023/12/26 08:21:39;;;;;;;1.50;0.40;;;;;;;9.55;100.00;99906.28;5061386;28;20441;-65
2023/12/26 08:24:07;;;;;;;1.43;0.30;;;;;;;9.49;100.00;99929.97;5049541;28;20459;-64
2023/12/26 08:26:36;;;;;;;1.80;0.50;;;;;;;9.48;100.00;99932.97;5038150;28;20755;-66
2023/12/26 08:29:03;;;;;;;1.50;0.30;;;;;;;9.46;100.00;99935.97;5064199;28;20517;-66
2023/12/26 08:31:30;;;;;;;1.50;0.30;;;;;;;9.53;100.00;99930.94;5042895;28;20514;-66
2023/12/26 08:33:57;;;;;;;1.80;0.60;;;;;;;9.52;100.00;99944.78;5055594;28;20461;-63
2023/12/26 08:36:25;;;;;;;1.50;0.40;;;;;;;9.56;100.00;99957.38;5048584;28;20434;-63
2023/12/26 08:38:51;;;;;;;1.60;0.40;;;;;;;9.50;100.00;99957.78;5054965;28;20453;-64
2023/12/26 08:41:18;;;;;;;1.70;0.50;;;;;;;9.45;100.00;99972.22;5052800;28;20492;-63
2023/12/26 08:43:46;;;;;;;2.20;0.70;;;;;;;9.50;100.00;99968.59;5038087;28;20456;-63
2023/12/26 08:46:14;;;;;;;1.60;0.40;;;;;;;9.51;100.00;99979.09;5043304;28;20487;-63
2023/12/26 08:48:41;;;;;;;1.63;0.47;;;;;;;9.52;100.00;99980.72;5051044;28;20430;-63
2023/12/26 08:51:07;;;;;;;1.53;0.40;;;;;;;9.58;100.00;99982.19;5052081;28;20474;-65
2023/12/26 08:53:34;;;;;;;1.50;0.40;;;;;;;9.57;100.00;99975.19;5052798;28;20438;-65
2023/12/26 08:56:03;;;;;;;2.13;0.40;;;;;;;9.51;100.00;99981.81;5052617;28;20426;-63
2023/12/26 08:58:31;;;;;;;1.63;0.50;;;;;;;9.54;100.00;99981.19;5036102;28;20463;-64
2023/12/26 09:01:00;;;;;;;1.60;0.43;;;;;;;9.52;100.00;99985.31;5040037;28;20439;-63
2023/12/26 09:03:27;;;;;;;1.80;0.60;;;;;;;9.50;100.00;99982.91;5053178;28;20425;-64
2023/12/26 09:05:54;;;;;;;15.50;0.60;;;;;;;9.43;100.00;99995.25;5049017;28;20426;-64
2023/12/26 09:08:21;;;;;;;2.00;0.53;;;;;;;9.45;100.00;99993.06;5041750;28;20950;-64
2023/12/26 09:10:48;;;;;;;1.60;0.40;;;;;;;9.42;100.00;100001.78;5042017;28;20555;-64
2023/12/26 09:13:16;;;;;;;1.50;0.40;;;;;;;9.34;100.00;100001.44;5051685;28;20494;-64
2023/12/26 09:15:43;;;;;;;1.70;0.50;;;;;;;9.33;100.00;100007.13;5042624;28;20462;-67
2023/12/26 09:18:11;;;;;;;1.67;0.50;;;;;;;9.39;100.00;100015.94;5054674;28;20521;-67
2023/12/26 09:20:38;;;;;;;1.50;0.40;;;;;;;9.37;100.00;100026.22;5054777;28;20450;-67
2023/12/26 09:23:05;;;;;;;2.20;0.60;;;;;;;9.34;100.00;100014.13;5057378;28;20439;-64
2023/12/26 09:25:31;;;;;;;2.00;0.63;;;;;;;9.34;100.00;100033.03;5052973;28;20484;-63
2023/12/26 09:27:58;;;;;;;2.17;0.40;;;;;;;9.33;100.00;100028.75;5064304;28;20438;-65
2023/12/26 09:30:25;;;;;;;1.70;0.60;;;;;;;9.29;100.00;100033.94;5069759;28;20876;-65
2023/12/26 09:32:52;;;;;;;1.97;0.50;;;;;;;9.32;100.00;100033.34;5049765;28;20537;-66
2023/12/26 09:35:20;;;;;;;1.57;0.37;;;;;;;9.32;100.00;100041.47;5045815;28;20458;-64
2023/12/26 09:37:47;;;;;;;2.23;0.60;;;;;;;9.38;100.00;100052.16;5058942;28;20435;-64
2023/12/26 09:40:14;;;;;;;1.70;0.50;;;;;;;9.41;100.00;100036.13;5055827;28;20438;-63
2023/12/26 09:42:41;;;;;;;1.70;0.60;;;;;;;9.49;100.00;100058.94;5046382;28;20430;-64
2023/12/26 09:45:11;;;;;;;2.77;1.20;;;;;;;9.46;100.00;100059.53;5054469;28;20456;-64
2023/12/26 09:47:39;;;;;;;1.70;0.40;;;;;;;9.50;100.00;100065.91;5041297;28;20430;-64
2023/12/26 09:50:07;;;;;;;1.60;0.40;;;;;;;9.63;100.00;100078.59;5054881;28;20497;-62
2023/12/26 09:52:37;;;;;;;1.80;0.43;;;;;;;9.74;100.00;100071.00;5040781;28;20624;-64
2023/12/26 09:55:04;;;;;;;1.60;0.50;;;;;;;9.82;100.00;100084.59;5056667;28;20453;-63
2023/12/26 09:57:31;;;;;;;1.70;0.50;;;;;;;9.91;100.00;100075.75;5051659;28;20517;-63
2023/12/26 09:59:58;;;;;;;1.80;0.60;;;;;;;9.96;100.00;100097.25;5047605;28;20432;-62
2023/12/26 10:02:25;;;;;;;1.60;0.40;;;;;;;10.07;100.00;100079.66;5050445;28;20930;-62
2023/12/26 10:04:52;;;;;;;1.97;0.63;;;;;;;10.10;100.00;100106.13;5065952;28;20450;-62
2023/12/26 10:07:19;;;;;;;1.57;0.40;;;;;;;10.16;99.68;100123.03;5058599;28;20431;-65
2023/12/26 10:09:48;;;;;;;1.67;0.53;;;;;;;10.10;97.68;100111.53;5053199;28;20423;-62
2023/12/26 10:12:14;;;;;;;1.60;0.40;;;;;;;10.08;96.44;100127.25;5046649;28;20458;-64
2023/12/26 10:14:41;;;;;;;1.57;0.43;;;;;;;9.93;95.72;100114.91;5050993;28;20512;-62
2023/12/26 10:17:09;;;;;;;1.60;0.53;;;;;;;9.92;94.75;100126.06;5061526;28;20467;-62
2023/12/26 10:19:35;;;;;;;1.60;0.50;;;;;;;9.89;95.42;100123.97;5063600;28;20849;-62
2023/12/26 10:22:03;;;;;;;2.23;0.50;;;;;;;9.86;95.57;100134.28;5058655;28;20889;-62
2023/12/26 10:24:30;;;;;;;1.50;0.40;;;;;;;9.81;97.28;100133.59;5049919;28;20442;-62
2023/12/26 10:27:00;;;;;;;1.60;0.50;;;;;;;9.88;97.41;100119.66;5038320;28;20533;-62
2023/12/26 10:29:26;;;;;;;1.60;0.43;;;;;;;9.95;97.29;100142.44;5047731;28;20434;-62
2023/12/26 10:31:53;;;;;;;1.70;0.50;;;;;;;10.00;95.67;100142.31;5055642;28;20493;-62
2023/12/26 10:34:21;;;;;;;1.80;0.60;;;;;;;10.12;93.47;100147.19;5053404;28;20481;-65
2023/12/26 10:36:49;;;;;;;1.73;0.50;;;;;;;10.16;92.66;100166.31;5054266;28;20442;-66
2023/12/26 10:39:17;;;;;;;2.27;0.50;;;;;;;10.23;92.85;100159.38;5058379;28;20488;-65
2023/12/26 10:41:45;;;;;;;1.70;0.60;;;;;;;10.21;91.33;100156.16;5053931;28;20437;-65
2023/12/26 10:44:16;;;;;;;1.77;0.57;;;;;;;10.18;92.29;100164.91;5055621;28;20467;-66
2023/12/26 10:46:44;;;;;;;1.57;0.47;;;;;;;10.14;90.63;100160.41;5049212;28;20802;-65
2023/12/26 10:49:12;;;;;;;1.80;0.70;;;;;;;10.08;89.96;100167.84;5049875;28;20439;-65
2023/12/26 10:51:43;;;;;;;1.90;0.70;;;;;;;10.03;90.82;100166.06;5054250;28;20532;-66
2023/12/26 10:54:18;;;;;;;1.90;0.63;;;;;;;10.04;89.96;100177.69;5047172;28;20982;-63
2023/12/26 10:56:47;;;;;;;2.10;0.80;;;;;;;10.05;90.60;100190.13;5056376;28;20434;-62
2023/12/26 13:54:07;;;;;;;3.73;0.60;;;;;;;10.26;70.51;100333.91;5051836;28;20430;-64
2023/12/26 13:56:33;;;;;;;1.60;0.50;;;;;;;10.27;69.97;100344.47;5071855;28;20525;-64
2023/12/26 13:58:59;;;;;;;1.60;0.40;;;;;;;10.27;70.78;100340.94;5055680;28;20966;-64
2023/12/26 14:01:27;;;;;;;1.70;0.47;;;;;;;10.26;71.57;100342.84;5052585;28;20934;-64
2023/12/26 14:03:55;;;;;;;1.80;0.63;;;;;;;10.20;71.46;100351.34;5046153;28;20975;-64
2023/12/26 14:06:21;;;;;;;1.50;0.37;;;;;;;10.21;71.20;100356.47;5041260;28;20434;-65
2023/12/26 14:08:49;;;;;;;1.70;0.50;;;;;;;10.22;71.70;100355.34;5044224;28;20451;-63
2023/12/26 14:11:17;;;;;;;1.57;0.43;;;;;;;10.16;72.19;100363.91;5060310;22;20512;-65
2023/12/26 14:13:43;;;;;;;1.50;0.40;;;;;;;10.18;70.67;100361.66;5054133;28;20843;-66
2023/12/26 14:16:10;;;;;;;4.30;0.57;;;;;;;10.08;71.80;100384.34;5043710;28;20463;-67
2023/12/26 14:18:36;;;;;;;2.87;0.60;;;;;;;10.03;71.49;100370.91;5041231;28;20511;-67
2023/12/26 14:21:03;;;;;;;1.70;0.50;;;;;;;9.94;72.39;100384.34;5047721;28;20505;-69
2023/12/26 14:23:29;;;;;;;1.57;0.43;;;;;;;9.95;71.63;100383.25;5052423;28;20459;-66
2023/12/26 14:25:56;;;;;;;2.83;0.97;;;;;;;9.93;71.62;100390.06;5037488;28;20878;-66